KAKO/AKO METAR and TAF weather

Enter ICAO airport designator
Station Type Date Time Source
KAKO METAR 2019/10/16 18:53 UTC NOAA

KAKO 161853Z AUTO 26007KT 10SM CLR 20/M04 A3010 RMK AO2 SLP170 T02001039


Station Type Date Time Source
KAKO Decoded METAR 2019/10/16 18:53 UTC NOAA

COLORADO PLAINS REGIONAL, CO, United States (KAKO) 40-10N 103-13W 1421M
Oct 16, 2019 - 02:53 PM EDT / 2019.10.16 1853 UTC
Wind: from the W (260 degrees) at 8 MPH (7 KT):0
Visibility: 10 mile(s):0
Sky conditions: clear
Temperature: 68.0 F (20.0 C)
Dew Point: 25.0 F (-3.9 C)
Relative Humidity: 19%
Pressure (altimeter): 30.1 in. Hg (1019 hPa)
ob: KAKO 161853Z AUTO 26007KT 10SM CLR 20/M04 A3010 RMK AO2 SLP170 T02001039
cycle: 19

Station Type Date Time Source
KAKO TAF UTC NOAA

Error!

Example: see airport list